EBOS

Ostend-Bruges International Airport

Ostend, Belgium
METAR EBOS 230950Z 08015KT CAVOK 01/M05 Q1022 NOSIG
Observed Flight Rules
Feb-23 @ 09:50 UTC (38 minutes ago) Visual Flight Rules
Wind Visibility Clouds
80° at 15 knots 10,000+ meters
  • Clear skies
Temperatures Readings
Current 1°C / 34°F
Dewpoint -5°C / 23°F
Humidity 65%
Altimeter 30.18" Hg
Pressure 1022 hPa
Elevation 5
METAR EBOS 230950Z 08015KT CAVOK 01/M05 Q1022 NOSIG
Observed Flight Rules
Feb-23 @ 09:50 UTC
(38 minutes ago)
VFR
Wind Visibility
80° at 15 knots 10,000+ meters
Clouds
  • Clear skies
Temperature Dewpoint
1°C / 34°F -5°C / 23°F
Humidity Altimeter Pressure
65% 30.18" Hg 1022 hPa